sensor_id;sensor_type;location;lat;lon;timestamp;temperature;humidity
4687;DHT22;2357;47.316;-1.348;2022-11-18T00:01:32;9.10;99.90
4687;DHT22;2357;47.316;-1.348;2022-11-18T00:03:58;9.10;99.90
4687;DHT22;2357;47.316;-1.348;2022-11-18T00:06:25;9.10;99.90
4687;DHT22;2357;47.316;-1.348;2022-11-18T00:08:52;9.10;99.90
4687;DHT22;2357;47.316;-1.348;2022-11-18T00:11:21;9.10;99.90
4687;DHT22;2357;47.316;-1.348;2022-11-18T00:14:20;8.90;99.90
4687;DHT22;2357;47.316;-1.348;2022-11-18T00:19:16;9.00;99.90
4687;DHT22;2357;47.316;-1.348;2022-11-18T00:21:42;9.00;99.90
4687;DHT22;2357;47.316;-1.348;2022-11-18T00:24:08;9.00;99.90
4687;DHT22;2357;47.316;-1.348;2022-11-18T00:26:34;9.00;99.90
4687;DHT22;2357;47.316;-1.348;2022-11-18T00:29:00;9.00;99.90
4687;DHT22;2357;47.316;-1.348;2022-11-18T00:31:27;9.00;99.90
4687;DHT22;2357;47.316;-1.348;2022-11-18T00:33:52;8.90;99.90
4687;DHT22;2357;47.316;-1.348;2022-11-18T00:36:18;8.90;99.90
4687;DHT22;2357;47.316;-1.348;2022-11-18T00:38:44;8.90;99.90
4687;DHT22;2357;47.316;-1.348;2022-11-18T00:41:11;8.90;99.90
4687;DHT22;2357;47.316;-1.348;2022-11-18T00:43:37;8.90;99.90
4687;DHT22;2357;47.316;-1.348;2022-11-18T00:46:04;8.90;99.90
4687;DHT22;2357;47.316;-1.348;2022-11-18T00:48:30;8.90;99.90
4687;DHT22;2357;47.316;-1.348;2022-11-18T00:50:57;8.90;99.90
4687;DHT22;2357;47.316;-1.348;2022-11-18T00:53:25;8.70;99.90
4687;DHT22;2357;47.316;-1.348;2022-11-18T00:55:52;8.80;99.90
4687;DHT22;2357;47.316;-1.348;2022-11-18T00:58:18;8.80;99.90
4687;DHT22;2357;47.316;-1.348;2022-11-18T01:00:46;8.80;99.90
4687;DHT22;2357;47.316;-1.348;2022-11-18T01:03:14;8.90;99.90
4687;DHT22;2357;47.316;-1.348;2022-11-18T01:05:39;8.80;99.90
4687;DHT22;2357;47.316;-1.348;2022-11-18T01:08:07;8.80;99.90
4687;DHT22;2357;47.316;-1.348;2022-11-18T01:10:34;8.80;99.90
4687;DHT22;2357;47.316;-1.348;2022-11-18T01:12:59;8.80;99.90
4687;DHT22;2357;47.316;-1.348;2022-11-18T01:15:54;8.80;99.90
4687;DHT22;2357;47.316;-1.348;2022-11-18T01:18:25;8.80;99.90
4687;DHT22;2357;47.316;-1.348;2022-11-18T01:20:51;8.90;99.90
4687;DHT22;2357;47.316;-1.348;2022-11-18T01:23:19;8.80;99.90
4687;DHT22;2357;47.316;-1.348;2022-11-18T01:25:46;8.80;99.90
4687;DHT22;2357;47.316;-1.348;2022-11-18T01:28:12;8.90;99.90
4687;DHT22;2357;47.316;-1.348;2022-11-18T01:30:39;8.80;99.90
4687;DHT22;2357;47.316;-1.348;2022-11-18T01:33:06;8.70;99.90
4687;DHT22;2357;47.316;-1.348;2022-11-18T01:35:39;8.70;99.90
4687;DHT22;2357;47.316;-1.348;2022-11-18T01:38:06;8.70;99.90
4687;DHT22;2357;47.316;-1.348;2022-11-18T01:40:32;8.70;99.90
4687;DHT22;2357;47.316;-1.348;2022-11-18T01:42:58;8.70;99.90
4687;DHT22;2357;47.316;-1.348;2022-11-18T01:45:37;8.70;99.90
4687;DHT22;2357;47.316;-1.348;2022-11-18T01:50:42;8.60;99.90
4687;DHT22;2357;47.316;-1.348;2022-11-18T01:53:21;8.60;99.90
4687;DHT22;2357;47.316;-1.348;2022-11-18T01:55:49;8.70;99.90
4687;DHT22;2357;47.316;-1.348;2022-11-18T01:58:35;8.60;99.90
4687;DHT22;2357;47.316;-1.348;2022-11-18T02:01:03;8.60;99.90
4687;DHT22;2357;47.316;-1.348;2022-11-18T02:03:29;8.60;99.90
4687;DHT22;2357;47.316;-1.348;2022-11-18T02:05:56;8.50;99.90
4687;DHT22;2357;47.316;-1.348;2022-11-18T02:08:24;8.60;99.90
4687;DHT22;2357;47.316;-1.348;2022-11-18T02:10:50;8.60;99.90
4687;DHT22;2357;47.316;-1.348;2022-11-18T02:13:16;8.60;99.90
4687;DHT22;2357;47.316;-1.348;2022-11-18T02:18:51;8.50;99.90
4687;DHT22;2357;47.316;-1.348;2022-11-18T02:24:39;8.10;99.90
4687;DHT22;2357;47.316;-1.348;2022-11-18T02:30:04;8.50;99.90
4687;DHT22;2357;47.316;-1.348;2022-11-18T02:32:38;8.50;99.90
4687;DHT22;2357;47.316;-1.348;2022-11-18T02:40:44;8.50;99.90
4687;DHT22;2357;47.316;-1.348;2022-11-18T02:45:48;8.50;99.90
4687;DHT22;2357;47.316;-1.348;2022-11-18T02:48:17;8.40;99.90
4687;DHT22;2357;47.316;-1.348;2022-11-18T02:50:45;8.30;99.90
4687;DHT22;2357;47.316;-1.348;2022-11-18T02:53:13;8.30;99.90
4687;DHT22;2357;47.316;-1.348;2022-11-18T02:55:40;8.30;99.90
4687;DHT22;2357;47.316;-1.348;2022-11-18T02:58:06;8.40;99.90
4687;DHT22;2357;47.316;-1.348;2022-11-18T03:00:33;8.40;99.90
4687;DHT22;2357;47.316;-1.348;2022-11-18T03:03:26;8.40;99.90
4687;DHT22;2357;47.316;-1.348;2022-11-18T03:06:12;8.40;99.90
4687;DHT22;2357;47.316;-1.348;2022-11-18T03:08:53;8.40;99.90
4687;DHT22;2357;47.316;-1.348;2022-11-18T03:11:25;8.30;99.90
4687;DHT22;2357;47.316;-1.348;2022-11-18T03:17:08;8.30;99.90
4687;DHT22;2357;47.316;-1.348;2022-11-18T03:22:17;8.30;99.90
4687;DHT22;2357;47.316;-1.348;2022-11-18T03:24:55;8.30;99.90
4687;DHT22;2357;47.316;-1.348;2022-11-18T03:27:33;8.30;99.90
4687;DHT22;2357;47.316;-1.348;2022-11-18T03:30:05;8.30;99.90
4687;DHT22;2357;47.316;-1.348;2022-11-18T03:32:35;8.20;99.90
4687;DHT22;2357;47.316;-1.348;2022-11-18T03:35:06;8.20;99.90
4687;DHT22;2357;47.316;-1.348;2022-11-18T03:37:33;8.20;99.90
4687;DHT22;2357;47.316;-1.348;2022-11-18T03:40:11;8.20;99.90
4687;DHT22;2357;47.316;-1.348;2022-11-18T03:42:41;8.20;99.90
4687;DHT22;2357;47.316;-1.348;2022-11-18T03:45:19;8.20;99.90
4687;DHT22;2357;47.316;-1.348;2022-11-18T03:48:39;8.20;99.90
4687;DHT22;2357;47.316;-1.348;2022-11-18T03:50:49;8.20;99.90
4687;DHT22;2357;47.316;-1.348;2022-11-18T03:53:16;8.10;99.90
4687;DHT22;2357;47.316;-1.348;2022-11-18T03:55:57;8.20;99.90
4687;DHT22;2357;47.316;-1.348;2022-11-18T03:58:49;8.20;99.90
4687;DHT22;2357;47.316;-1.348;2022-11-18T04:01:22;8.20;99.90
4687;DHT22;2357;47.316;-1.348;2022-11-18T04:03:49;8.10;99.90
4687;DHT22;2357;47.316;-1.348;2022-11-18T04:06:33;8.10;99.90
4687;DHT22;2357;47.316;-1.348;2022-11-18T04:09:09;8.20;99.90
4687;DHT22;2357;47.316;-1.348;2022-11-18T04:11:41;8.20;99.90
4687;DHT22;2357;47.316;-1.348;2022-11-18T04:14:31;8.20;99.90
4687;DHT22;2357;47.316;-1.348;2022-11-18T04:16:57;8.20;99.90
4687;DHT22;2357;47.316;-1.348;2022-11-18T04:19:23;8.10;99.90
4687;DHT22;2357;47.316;-1.348;2022-11-18T04:21:49;8.20;99.90
4687;DHT22;2357;47.316;-1.348;2022-11-18T04:24:15;8.20;99.90
4687;DHT22;2357;47.316;-1.348;2022-11-18T04:26:40;8.20;99.90
4687;DHT22;2357;47.316;-1.348;2022-11-18T04:29:06;8.30;99.90
4687;DHT22;2357;47.316;-1.348;2022-11-18T04:31:32;8.20;99.90
4687;DHT22;2357;47.316;-1.348;2022-11-18T04:33:57;8.20;99.90
4687;DHT22;2357;47.316;-1.348;2022-11-18T04:36:23;8.20;99.90
4687;DHT22;2357;47.316;-1.348;2022-11-18T04:38:49;8.20;99.90
4687;DHT22;2357;47.316;-1.348;2022-11-18T04:41:14;8.10;99.90
4687;DHT22;2357;47.316;-1.348;2022-11-18T04:43:40;8.10;99.90
4687;DHT22;2357;47.316;-1.348;2022-11-18T04:46:06;8.10;99.90
4687;DHT22;2357;47.316;-1.348;2022-11-18T04:48:31;8.10;99.90
4687;DHT22;2357;47.316;-1.348;2022-11-18T04:50:57;8.10;99.90
4687;DHT22;2357;47.316;-1.348;2022-11-18T04:53:23;8.10;99.90
4687;DHT22;2357;47.316;-1.348;2022-11-18T04:55:48;8.20;99.90
4687;DHT22;2357;47.316;-1.348;2022-11-18T04:58:14;8.10;99.90
4687;DHT22;2357;47.316;-1.348;2022-11-18T05:00:39;8.10;99.90
4687;DHT22;2357;47.316;-1.348;2022-11-18T05:03:05;8.00;99.90
4687;DHT22;2357;47.316;-1.348;2022-11-18T05:05:33;8.10;99.90
4687;DHT22;2357;47.316;-1.348;2022-11-18T05:07:58;8.10;99.90
4687;DHT22;2357;47.316;-1.348;2022-11-18T05:10:24;8.00;99.90
4687;DHT22;2357;47.316;-1.348;2022-11-18T05:12:50;8.10;99.90
4687;DHT22;2357;47.316;-1.348;2022-11-18T05:15:18;8.00;99.90
4687;DHT22;2357;47.316;-1.348;2022-11-18T05:17:44;8.00;99.90
4687;DHT22;2357;47.316;-1.348;2022-11-18T05:20:11;8.10;99.90
4687;DHT22;2357;47.316;-1.348;2022-11-18T05:22:37;8.10;99.90
4687;DHT22;2357;47.316;-1.348;2022-11-18T05:25:03;8.00;99.90
4687;DHT22;2357;47.316;-1.348;2022-11-18T05:27:29;8.10;99.90
4687;DHT22;2357;47.316;-1.348;2022-11-18T05:29:55;8.10;99.90
4687;DHT22;2357;47.316;-1.348;2022-11-18T05:32:20;8.10;99.90
4687;DHT22;2357;47.316;-1.348;2022-11-18T05:34:46;8.00;99.90
4687;DHT22;2357;47.316;-1.348;2022-11-18T05:37:12;8.00;99.90
4687;DHT22;2357;47.316;-1.348;2022-11-18T05:39:38;7.90;99.90
4687;DHT22;2357;47.316;-1.348;2022-11-18T05:42:04;8.00;99.90
4687;DHT22;2357;47.316;-1.348;2022-11-18T05:44:48;8.00;99.90
4687;DHT22;2357;47.316;-1.348;2022-11-18T05:47:16;8.00;99.90
4687;DHT22;2357;47.316;-1.348;2022-11-18T05:49:42;8.00;99.90
4687;DHT22;2357;47.316;-1.348;2022-11-18T05:52:07;8.10;99.90
4687;DHT22;2357;47.316;-1.348;2022-11-18T05:54:33;8.00;99.90
4687;DHT22;2357;47.316;-1.348;2022-11-18T05:56:58;8.10;99.90
4687;DHT22;2357;47.316;-1.348;2022-11-18T05:59:24;8.10;99.90
4687;DHT22;2357;47.316;-1.348;2022-11-18T06:04:52;8.10;99.90
4687;DHT22;2357;47.316;-1.348;2022-11-18T06:07:23;8.10;99.90
4687;DHT22;2357;47.316;-1.348;2022-11-18T06:09:52;8.10;99.90
4687;DHT22;2357;47.316;-1.348;2022-11-18T06:12:22;8.00;99.90
4687;DHT22;2357;47.316;-1.348;2022-11-18T06:14:53;8.00;99.90
4687;DHT22;2357;47.316;-1.348;2022-11-18T06:17:25;8.20;99.90
4687;DHT22;2357;47.316;-1.348;2022-11-18T06:19:52;8.10;99.90
4687;DHT22;2357;47.316;-1.348;2022-11-18T06:22:17;8.20;99.90
4687;DHT22;2357;47.316;-1.348;2022-11-18T06:24:43;8.40;99.90
4687;DHT22;2357;47.316;-1.348;2022-11-18T06:27:10;8.20;99.90
4687;DHT22;2357;47.316;-1.348;2022-11-18T06:29:36;8.20;99.90
4687;DHT22;2357;47.316;-1.348;2022-11-18T06:32:01;8.20;99.90
4687;DHT22;2357;47.316;-1.348;2022-11-18T06:34:27;8.20;99.90
4687;DHT22;2357;47.316;-1.348;2022-11-18T06:36:53;8.10;99.90
4687;DHT22;2357;47.316;-1.348;2022-11-18T06:39:18;8.10;99.90
4687;DHT22;2357;47.316;-1.348;2022-11-18T06:41:44;8.10;99.90
4687;DHT22;2357;47.316;-1.348;2022-11-18T06:44:11;8.00;99.90
4687;DHT22;2357;47.316;-1.348;2022-11-18T06:46:36;8.10;99.90
4687;DHT22;2357;47.316;-1.348;2022-11-18T06:49:21;8.00;99.90
4687;DHT22;2357;47.316;-1.348;2022-11-18T06:51:46;7.90;99.90
4687;DHT22;2357;47.316;-1.348;2022-11-18T06:54:12;7.90;99.90
4687;DHT22;2357;47.316;-1.348;2022-11-18T06:56:38;7.90;99.90
4687;DHT22;2357;47.316;-1.348;2022-11-18T06:59:04;7.90;99.90
4687;DHT22;2357;47.316;-1.348;2022-11-18T07:01:32;7.90;99.90
4687;DHT22;2357;47.316;-1.348;2022-11-18T07:03:59;7.80;99.90
4687;DHT22;2357;47.316;-1.348;2022-11-18T07:06:27;7.90;99.90
4687;DHT22;2357;47.316;-1.348;2022-11-18T07:08:53;7.80;99.90
4687;DHT22;2357;47.316;-1.348;2022-11-18T07:11:24;7.80;99.90
4687;DHT22;2357;47.316;-1.348;2022-11-18T07:13:50;7.70;99.90
4687;DHT22;2357;47.316;-1.348;2022-11-18T07:16:18;7.70;99.90
4687;DHT22;2357;47.316;-1.348;2022-11-18T07:18:45;7.70;99.90
4687;DHT22;2357;47.316;-1.348;2022-11-18T07:21:16;7.80;99.90
4687;DHT22;2357;47.316;-1.348;2022-11-18T07:23:42;7.70;99.90
4687;DHT22;2357;47.316;-1.348;2022-11-18T07:26:07;7.70;99.90
4687;DHT22;2357;47.316;-1.348;2022-11-18T07:28:33;7.80;99.90
4687;DHT22;2357;47.316;-1.348;2022-11-18T07:31:06;7.80;99.90
4687;DHT22;2357;47.316;-1.348;2022-11-18T07:33:32;7.90;99.90
4687;DHT22;2357;47.316;-1.348;2022-11-18T07:36:04;7.90;99.90
4687;DHT22;2357;47.316;-1.348;2022-11-18T07:38:30;7.90;99.90
4687;DHT22;2357;47.316;-1.348;2022-11-18T07:41:12;7.90;99.90
4687;DHT22;2357;47.316;-1.348;2022-11-18T07:43:38;8.00;99.90
4687;DHT22;2357;47.316;-1.348;2022-11-18T07:46:12;8.10;99.90
4687;DHT22;2357;47.316;-1.348;2022-11-18T07:48:39;8.10;99.90
4687;DHT22;2357;47.316;-1.348;2022-11-18T07:51:05;8.10;99.90
4687;DHT22;2357;47.316;-1.348;2022-11-18T07:53:31;8.20;99.90
4687;DHT22;2357;47.316;-1.348;2022-11-18T07:55:57;8.20;99.90
4687;DHT22;2357;47.316;-1.348;2022-11-18T07:58:23;8.20;99.90
4687;DHT22;2357;47.316;-1.348;2022-11-18T08:00:49;8.20;99.90
4687;DHT22;2357;47.316;-1.348;2022-11-18T08:03:14;8.20;99.90
4687;DHT22;2357;47.316;-1.348;2022-11-18T08:05:40;8.30;99.90
4687;DHT22;2357;47.316;-1.348;2022-11-18T08:08:06;8.30;99.90
4687;DHT22;2357;47.316;-1.348;2022-11-18T08:10:31;8.30;99.90
4687;DHT22;2357;47.316;-1.348;2022-11-18T08:12:57;8.30;99.90
4687;DHT22;2357;47.316;-1.348;2022-11-18T08:15:23;8.30;99.90
4687;DHT22;2357;47.316;-1.348;2022-11-18T08:17:49;8.40;99.90
4687;DHT22;2357;47.316;-1.348;2022-11-18T08:20:15;8.20;99.90
4687;DHT22;2357;47.316;-1.348;2022-11-18T08:22:40;8.40;99.90
4687;DHT22;2357;47.316;-1.348;2022-11-18T08:25:06;8.40;99.90
4687;DHT22;2357;47.316;-1.348;2022-11-18T08:27:32;8.40;99.90
4687;DHT22;2357;47.316;-1.348;2022-11-18T08:29:58;8.40;99.90
4687;DHT22;2357;47.316;-1.348;2022-11-18T08:32:24;8.50;99.90
4687;DHT22;2357;47.316;-1.348;2022-11-18T08:34:50;8.50;99.90
4687;DHT22;2357;47.316;-1.348;2022-11-18T08:37:16;8.60;99.90
4687;DHT22;2357;47.316;-1.348;2022-11-18T08:39:42;8.70;99.90
4687;DHT22;2357;47.316;-1.348;2022-11-18T08:42:08;8.70;99.90
4687;DHT22;2357;47.316;-1.348;2022-11-18T08:44:35;8.80;99.90
4687;DHT22;2357;47.316;-1.348;2022-11-18T08:47:00;8.90;99.90
4687;DHT22;2357;47.316;-1.348;2022-11-18T08:49:26;8.80;99.90
4687;DHT22;2357;47.316;-1.348;2022-11-18T08:51:52;8.80;99.90
4687;DHT22;2357;47.316;-1.348;2022-11-18T08:54:18;8.70;99.90
4687;DHT22;2357;47.316;-1.348;2022-11-18T08:56:43;8.70;99.90
4687;DHT22;2357;47.316;-1.348;2022-11-18T08:59:09;8.60;99.90
4687;DHT22;2357;47.316;-1.348;2022-11-18T09:01:36;8.70;99.90
4687;DHT22;2357;47.316;-1.348;2022-11-18T09:04:02;8.80;99.90
4687;DHT22;2357;47.316;-1.348;2022-11-18T09:06:28;8.90;99.90
4687;DHT22;2357;47.316;-1.348;2022-11-18T09:08:53;8.90;99.90
4687;DHT22;2357;47.316;-1.348;2022-11-18T09:11:24;9.00;99.90
4687;DHT22;2357;47.316;-1.348;2022-11-18T09:13:55;9.10;99.90
4687;DHT22;2357;47.316;-1.348;2022-11-18T09:16:22;9.10;99.90
4687;DHT22;2357;47.316;-1.348;2022-11-18T09:18:51;9.20;99.90
4687;DHT22;2357;47.316;-1.348;2022-11-18T09:21:18;9.20;99.90
4687;DHT22;2357;47.316;-1.348;2022-11-18T09:23:44;9.20;99.90
4687;DHT22;2357;47.316;-1.348;2022-11-18T09:26:12;9.20;99.90
4687;DHT22;2357;47.316;-1.348;2022-11-18T09:28:38;9.20;99.90
4687;DHT22;2357;47.316;-1.348;2022-11-18T09:31:16;9.20;99.90
4687;DHT22;2357;47.316;-1.348;2022-11-18T09:33:42;9.20;99.90
4687;DHT22;2357;47.316;-1.348;2022-11-18T09:36:14;9.20;99.90
4687;DHT22;2357;47.316;-1.348;2022-11-18T09:38:40;9.10;99.90
4687;DHT22;2357;47.316;-1.348;2022-11-18T09:41:19;9.10;99.90
4687;DHT22;2357;47.316;-1.348;2022-11-18T09:47:12;9.00;99.90
4687;DHT22;2357;47.316;-1.348;2022-11-18T09:49:41;9.10;99.90
4687;DHT22;2357;47.316;-1.348;2022-11-18T09:52:29;9.10;99.90
4687;DHT22;2357;47.316;-1.348;2022-11-18T09:54:57;9.20;99.90
4687;DHT22;2357;47.316;-1.348;2022-11-18T09:57:30;9.20;99.90
4687;DHT22;2357;47.316;-1.348;2022-11-18T10:00:00;9.20;99.90
4687;DHT22;2357;47.316;-1.348;2022-11-18T10:05:27;9.40;99.90
4687;DHT22;2357;47.316;-1.348;2022-11-18T10:10:51;9.60;99.90
4687;DHT22;2357;47.316;-1.348;2022-11-18T10:13:25;9.70;99.90
4687;DHT22;2357;47.316;-1.348;2022-11-18T10:18:55;9.90;99.90
4687;DHT22;2357;47.316;-1.348;2022-11-18T10:24:23;10.10;99.90
4687;DHT22;2357;47.316;-1.348;2022-11-18T10:26:54;10.20;99.90
4687;DHT22;2357;47.316;-1.348;2022-11-18T10:29:20;10.30;99.90
4687;DHT22;2357;47.316;-1.348;2022-11-18T10:32:08;10.40;99.90
4687;DHT22;2357;47.316;-1.348;2022-11-18T10:34:49;10.50;99.90
4687;DHT22;2357;47.316;-1.348;2022-11-18T10:37:27;10.50;99.90
4687;DHT22;2357;47.316;-1.348;2022-11-18T10:39:56;10.60;99.90
4687;DHT22;2357;47.316;-1.348;2022-11-18T10:44:51;10.70;99.90
4687;DHT22;2357;47.316;-1.348;2022-11-18T10:47:30;10.70;99.90
4687;DHT22;2357;47.316;-1.348;2022-11-18T10:49:59;10.80;99.90
4687;DHT22;2357;47.316;-1.348;2022-11-18T10:52:25;10.80;99.90
4687;DHT22;2357;47.316;-1.348;2022-11-18T10:57:35;11.00;99.90
4687;DHT22;2357;47.316;-1.348;2022-11-18T11:00:02;11.00;99.90
4687;DHT22;2357;47.316;-1.348;2022-11-18T11:02:33;11.10;99.90
4687;DHT22;2357;47.316;-1.348;2022-11-18T11:05:19;11.10;99.90
4687;DHT22;2357;47.316;-1.348;2022-11-18T11:08:03;11.10;99.90
4687;DHT22;2357;47.316;-1.348;2022-11-18T11:10:29;11.20;99.90
4687;DHT22;2357;47.316;-1.348;2022-11-18T11:13:03;11.20;99.90
4687;DHT22;2357;47.316;-1.348;2022-11-18T11:15:40;11.20;99.90
4687;DHT22;2357;47.316;-1.348;2022-11-18T11:18:20;11.30;99.90
4687;DHT22;2357;47.316;-1.348;2022-11-18T11:21:18;11.30;99.90
4687;DHT22;2357;47.316;-1.348;2022-11-18T11:23:44;11.40;99.90
4687;DHT22;2357;47.316;-1.348;2022-11-18T11:29:24;11.60;99.90
4687;DHT22;2357;47.316;-1.348;2022-11-18T11:34:43;11.70;99.90
4687;DHT22;2357;47.316;-1.348;2022-11-18T11:50:58;12.10;99.90
4687;DHT22;2357;47.316;-1.348;2022-11-18T11:56:42;12.20;99.90
4687;DHT22;2357;47.316;-1.348;2022-11-18T11:59:38;12.30;99.90
4687;DHT22;2357;47.316;-1.348;2022-11-18T12:07:56;12.40;99.90
4687;DHT22;2357;47.316;-1.348;2022-11-18T12:16:29;12.60;99.90
4687;DHT22;2357;47.316;-1.348;2022-11-18T12:19:07;12.70;99.90
4687;DHT22;2357;47.316;-1.348;2022-11-18T12:26:49;12.80;99.90
4687;DHT22;2357;47.316;-1.348;2022-11-18T12:29:22;12.80;99.90
4687;DHT22;2357;47.316;-1.348;2022-11-18T12:31:59;12.90;99.90
4687;DHT22;2357;47.316;-1.348;2022-11-18T12:34:41;12.80;99.90
4687;DHT22;2357;47.316;-1.348;2022-11-18T12:48:02;13.10;99.90
4687;DHT22;2357;47.316;-1.348;2022-11-18T12:50:49;13.10;99.90
4687;DHT22;2357;47.316;-1.348;2022-11-18T12:53:40;13.40;99.90
4687;DHT22;2357;47.316;-1.348;2022-11-18T12:58:36;13.40;99.90
4687;DHT22;2357;47.316;-1.348;2022-11-18T13:01:07;13.30;99.90
4687;DHT22;2357;47.316;-1.348;2022-11-18T13:03:33;13.20;99.90
4687;DHT22;2357;47.316;-1.348;2022-11-18T13:06:06;13.80;99.90
4687;DHT22;2357;47.316;-1.348;2022-11-18T13:08:36;14.00;99.90
4687;DHT22;2357;47.316;-1.348;2022-11-18T13:11:16;15.00;99.90
4687;DHT22;2357;47.316;-1.348;2022-11-18T13:14:04;15.60;99.90
4687;DHT22;2357;47.316;-1.348;2022-11-18T13:16:49;16.00;99.90
4687;DHT22;2357;47.316;-1.348;2022-11-18T13:19:33;16.90;99.90
4687;DHT22;2357;47.316;-1.348;2022-11-18T13:22:00;17.00;99.90
4687;DHT22;2357;47.316;-1.348;2022-11-18T13:24:50;17.90;99.90
4687;DHT22;2357;47.316;-1.348;2022-11-18T13:27:54;18.00;99.90
4687;DHT22;2357;47.316;-1.348;2022-11-18T13:30:17;18.50;99.90
4687;DHT22;2357;47.316;-1.348;2022-11-18T13:32:47;19.60;99.90
4687;DHT22;2357;47.316;-1.348;2022-11-18T13:35:18;19.90;99.90
4687;DHT22;2357;47.316;-1.348;2022-11-18T13:37:53;19.80;99.90
4687;DHT22;2357;47.316;-1.348;2022-11-18T13:40:26;18.60;99.90
4687;DHT22;2357;47.316;-1.348;2022-11-18T13:42:52;19.20;99.90
4687;DHT22;2357;47.316;-1.348;2022-11-18T13:45:19;19.90;99.90
4687;DHT22;2357;47.316;-1.348;2022-11-18T13:47:51;21.20;99.90
4687;DHT22;2357;47.316;-1.348;2022-11-18T13:50:25;20.00;99.90
4687;DHT22;2357;47.316;-1.348;2022-11-18T13:56:05;19.70;99.90
4687;DHT22;2357;47.316;-1.348;2022-11-18T13:58:44;18.40;99.90
4687;DHT22;2357;47.316;-1.348;2022-11-18T14:01:40;16.90;99.90
4687;DHT22;2357;47.316;-1.348;2022-11-18T14:04:25;16.00;99.90
4687;DHT22;2357;47.316;-1.348;2022-11-18T14:06:52;15.00;99.90
4687;DHT22;2357;47.316;-1.348;2022-11-18T14:09:27;14.60;99.90
4687;DHT22;2357;47.316;-1.348;2022-11-18T14:11:59;14.50;99.90
4687;DHT22;2357;47.316;-1.348;2022-11-18T14:14:33;14.20;99.90
4687;DHT22;2357;47.316;-1.348;2022-11-18T14:17:23;14.10;99.90
4687;DHT22;2357;47.316;-1.348;2022-11-18T14:19:52;14.00;99.90
4687;DHT22;2357;47.316;-1.348;2022-11-18T14:22:18;13.90;99.90
4687;DHT22;2357;47.316;-1.348;2022-11-18T14:24:56;14.00;99.90
4687;DHT22;2357;47.316;-1.348;2022-11-18T14:30:40;13.80;99.90
4687;DHT22;2357;47.316;-1.348;2022-11-18T14:33:20;13.90;99.90
4687;DHT22;2357;47.316;-1.348;2022-11-18T14:35:53;14.10;99.90
4687;DHT22;2357;47.316;-1.348;2022-11-18T14:38:28;14.00;99.90
4687;DHT22;2357;47.316;-1.348;2022-11-18T14:40:59;13.70;99.90
4687;DHT22;2357;47.316;-1.348;2022-11-18T14:43:26;13.60;99.90
4687;DHT22;2357;47.316;-1.348;2022-11-18T14:45:54;13.40;99.90
4687;DHT22;2357;47.316;-1.348;2022-11-18T14:48:22;13.20;99.90
4687;DHT22;2357;47.316;-1.348;2022-11-18T14:50:49;13.10;99.90
4687;DHT22;2357;47.316;-1.348;2022-11-18T14:53:17;13.00;99.90
4687;DHT22;2357;47.316;-1.348;2022-11-18T14:55:43;12.90;99.90
4687;DHT22;2357;47.316;-1.348;2022-11-18T14:58:13;12.80;99.90
4687;DHT22;2357;47.316;-1.348;2022-11-18T15:00:41;12.80;99.90
4687;DHT22;2357;47.316;-1.348;2022-11-18T15:03:07;12.70;99.90
4687;DHT22;2357;47.316;-1.348;2022-11-18T15:05:33;12.70;99.90
4687;DHT22;2357;47.316;-1.348;2022-11-18T15:08:00;12.70;99.90
4687;DHT22;2357;47.316;-1.348;2022-11-18T15:10:25;12.70;99.90
4687;DHT22;2357;47.316;-1.348;2022-11-18T15:12:51;12.60;99.90
4687;DHT22;2357;47.316;-1.348;2022-11-18T15:15:17;12.60;99.90
4687;DHT22;2357;47.316;-1.348;2022-11-18T15:17:42;12.60;99.90
4687;DHT22;2357;47.316;-1.348;2022-11-18T15:20:12;12.50;99.90
4687;DHT22;2357;47.316;-1.348;2022-11-18T15:22:38;12.60;99.90
4687;DHT22;2357;47.316;-1.348;2022-11-18T15:25:04;12.50;99.90
4687;DHT22;2357;47.316;-1.348;2022-11-18T15:27:30;12.50;99.90
4687;DHT22;2357;47.316;-1.348;2022-11-18T15:29:55;12.50;99.90
4687;DHT22;2357;47.316;-1.348;2022-11-18T15:32:21;12.40;99.90
4687;DHT22;2357;47.316;-1.348;2022-11-18T15:34:46;12.40;99.90
4687;DHT22;2357;47.316;-1.348;2022-11-18T15:37:12;12.30;99.90
4687;DHT22;2357;47.316;-1.348;2022-11-18T15:39:38;12.20;99.90
4687;DHT22;2357;47.316;-1.348;2022-11-18T15:42:04;12.20;99.90
4687;DHT22;2357;47.316;-1.348;2022-11-18T15:44:29;12.20;99.90
4687;DHT22;2357;47.316;-1.348;2022-11-18T15:46:55;12.10;99.90
4687;DHT22;2357;47.316;-1.348;2022-11-18T15:49:21;12.00;99.90
4687;DHT22;2357;47.316;-1.348;2022-11-18T15:51:47;11.90;99.90
4687;DHT22;2357;47.316;-1.348;2022-11-18T15:54:13;11.90;99.90
4687;DHT22;2357;47.316;-1.348;2022-11-18T15:56:39;11.80;99.90
4687;DHT22;2357;47.316;-1.348;2022-11-18T15:59:14;11.80;99.90
4687;DHT22;2357;47.316;-1.348;2022-11-18T16:01:42;11.70;99.90
4687;DHT22;2357;47.316;-1.348;2022-11-18T16:04:09;11.60;99.90
4687;DHT22;2357;47.316;-1.348;2022-11-18T16:06:35;11.60;99.90
4687;DHT22;2357;47.316;-1.348;2022-11-18T16:09:02;11.50;99.90
4687;DHT22;2357;47.316;-1.348;2022-11-18T16:11:28;11.40;99.90
4687;DHT22;2357;47.316;-1.348;2022-11-18T16:14:14;11.40;99.90
4687;DHT22;2357;47.316;-1.348;2022-11-18T16:16:42;11.20;99.90
4687;DHT22;2357;47.316;-1.348;2022-11-18T16:19:10;11.20;99.90
4687;DHT22;2357;47.316;-1.348;2022-11-18T16:21:39;11.10;99.90
4687;DHT22;2357;47.316;-1.348;2022-11-18T16:24:07;11.20;99.90
4687;DHT22;2357;47.316;-1.348;2022-11-18T16:26:34;11.10;99.90
4687;DHT22;2357;47.316;-1.348;2022-11-18T16:29:01;10.90;99.90
4687;DHT22;2357;47.316;-1.348;2022-11-18T16:31:27;11.00;99.90
4687;DHT22;2357;47.316;-1.348;2022-11-18T16:36:31;10.80;99.90
4687;DHT22;2357;47.316;-1.348;2022-11-18T16:38:57;10.80;99.90
4687;DHT22;2357;47.316;-1.348;2022-11-18T16:41:27;10.80;99.90
4687;DHT22;2357;47.316;-1.348;2022-11-18T16:43:55;10.70;99.90
4687;DHT22;2357;47.316;-1.348;2022-11-18T16:46:23;10.80;99.90
4687;DHT22;2357;47.316;-1.348;2022-11-18T16:48:48;10.80;99.90
4687;DHT22;2357;47.316;-1.348;2022-11-18T16:51:22;10.70;99.90
4687;DHT22;2357;47.316;-1.348;2022-11-18T16:53:49;10.70;99.90
4687;DHT22;2357;47.316;-1.348;2022-11-18T16:56:16;10.70;99.90
4687;DHT22;2357;47.316;-1.348;2022-11-18T16:58:42;10.70;99.90
4687;DHT22;2357;47.316;-1.348;2022-11-18T17:01:11;10.80;99.90
4687;DHT22;2357;47.316;-1.348;2022-11-18T17:03:37;10.70;99.90
4687;DHT22;2357;47.316;-1.348;2022-11-18T17:06:03;10.70;99.90
4687;DHT22;2357;47.316;-1.348;2022-11-18T17:08:32;10.70;99.90
4687;DHT22;2357;47.316;-1.348;2022-11-18T17:11:06;10.60;99.90
4687;DHT22;2357;47.316;-1.348;2022-11-18T17:13:33;10.60;99.90
4687;DHT22;2357;47.316;-1.348;2022-11-18T17:16:09;10.60;99.90
4687;DHT22;2357;47.316;-1.348;2022-11-18T17:18:35;10.50;99.90
4687;DHT22;2357;47.316;-1.348;2022-11-18T17:21:02;10.50;99.90
4687;DHT22;2357;47.316;-1.348;2022-11-18T17:23:28;10.50;99.90
4687;DHT22;2357;47.316;-1.348;2022-11-18T17:25:53;10.40;99.90
4687;DHT22;2357;47.316;-1.348;2022-11-18T17:28:19;10.50;99.90
4687;DHT22;2357;47.316;-1.348;2022-11-18T17:30:44;10.40;99.90
4687;DHT22;2357;47.316;-1.348;2022-11-18T17:33:10;10.40;99.90
4687;DHT22;2357;47.316;-1.348;2022-11-18T17:35:35;10.40;99.90
4687;DHT22;2357;47.316;-1.348;2022-11-18T17:38:01;10.40;99.90
4687;DHT22;2357;47.316;-1.348;2022-11-18T17:40:27;10.40;99.90
4687;DHT22;2357;47.316;-1.348;2022-11-18T17:42:52;10.30;99.90
4687;DHT22;2357;47.316;-1.348;2022-11-18T17:45:18;10.40;99.90
4687;DHT22;2357;47.316;-1.348;2022-11-18T17:47:44;10.40;99.90
4687;DHT22;2357;47.316;-1.348;2022-11-18T17:50:09;10.50;99.90
4687;DHT22;2357;47.316;-1.348;2022-11-18T17:52:35;10.60;99.90
4687;DHT22;2357;47.316;-1.348;2022-11-18T17:55:01;10.60;99.90
4687;DHT22;2357;47.316;-1.348;2022-11-18T17:57:27;10.60;99.90
4687;DHT22;2357;47.316;-1.348;2022-11-18T17:59:52;10.60;99.90
4687;DHT22;2357;47.316;-1.348;2022-11-18T18:02:18;10.60;99.90
4687;DHT22;2357;47.316;-1.348;2022-11-18T18:04:46;10.60;99.90